This is the latest recevied weather packets stored in our database for station/object KC9EGS. If no packets are shown the sender has not sent any weather packets the latest 1 day(s).
| Time | Temp. | Humidity | Pressure | Rain* | Wind** | Luminosity | Snow |
|---|---|---|---|---|---|---|---|
| 1778014906 | 6.11° C | 43% | 1005.4 hPa | 0 mm | 2.24 m/s, 230° | - | - |
| 1778014005 | 6.11° C | 45% | 1005.2 hPa | 0 mm | 1.34 m/s, 267° | - | - |
| 1778013925 | 6.11° C | 43% | 1005.2 hPa | 0 mm | 1.34 m/s, 270° | - | - |
| 1778013106 | 6.11° C | 43% | 1005.3 hPa | 0 mm | 0.45 m/s, 260° | - | - |
| 1778012723 | 6.11° C | 43% | 1005.3 hPa | 0 mm | 2.24 m/s, 234° | - | - |
| 1778012206 | 6.11° C | 44% | 1005.3 hPa | 0 mm | 1.34 m/s, 274° | - | - |
| 1778012125 | 6.11° C | 44% | 1005.3 hPa | 0 mm | 0 m/s | - | - |
| 1778011523 | 6.11° C | 42% | 1005.1 hPa | 0 mm | 2.68 m/s, 258° | - | - |
| 1778011305 | 6.11° C | 42% | 1005.1 hPa | 0 mm | 3.13 m/s, 257° | - | - |
| 1778010925 | 6.11° C | 44% | 1005.1 hPa | 0 mm | 0 m/s | - | - |
| 1778010406 | 6.11° C | 43% | 1005.1 hPa | 0 mm | 4.02 m/s, 246° | - | - |
| 1778010324 | 6.11° C | 44% | 1005.1 hPa | 0 mm | 3.58 m/s, 250° | - | - |
| 1778009722 | 6.11° C | 45% | 1004.9 hPa | 0 mm | 3.13 m/s, 247° | - | - |
| 1778009507 | 6.11° C | 45% | 1004.9 hPa | 0 mm | 1.34 m/s, 244° | - | - |
| 1778008606 | 6.11° C | 47% | 1004.7 hPa | 0 mm | 2.24 m/s, 274° | - | - |
| 1778008524 | 6.11° C | 52% | 1004.7 hPa | 0 mm | 9.39 m/s, 251° | - | - |
| 1778007936 | 6.11° C | 46% | 1004.5 hPa | 0 mm | 2.68 m/s, 239° | - | - |
| 1778007706 | 6.11° C | 47% | 1004.5 hPa | 0 mm | 0.45 m/s, 267° | - | - |
| 1778007324 | 5.56° C | 48% | 1004.5 hPa | 0 mm | 0.89 m/s, 271° | - | - |
| 1778006806 | 5.56° C | 48% | 1004.5 hPa | 0 mm | 5.36 m/s, 244° | - | - |
| 1778006724 | 5.56° C | 48% | 1004.5 hPa | 0 mm | 2.24 m/s, 182° | - | - |
| 1778005906 | 5.56° C | 47% | 1004.1 hPa | 0 mm | 3.58 m/s, 359° | - | - |
| 1778005524 | 5.56° C | 49% | 1004 hPa | 0 mm | 2.24 m/s, 288° | - | - |
| 1778005005 | 5.56° C | 44% | 1004 hPa | 0 mm | 4.92 m/s, 254° | - | - |
| 1778004923 | 5.56° C | 44% | 1004 hPa | 0 mm | 3.13 m/s, 247° | - | - |
* Rain latest hour (hover to see other rain measurements)
** Current wind speed in m/s (hover to see current wind gust speed)